Time;durP1;ratioP1;P1;durP2;ratioP2;P2;SDS_P1;SDS_P2;PMS_P1;PMS_P2;Temp;Humidity;BMP_temperature;BMP_pressure;BME280_temperature;BME280_humidity;BME280_pressure;Samples;Min_cycle;Max_cycle;Signal;HPM_P1;HPM_P2
2022/10/17 00:01:19;;;;;;;0.60;0.60;;;;;;;9.77;88.84;100828.25;5029155;28;20213;-69
2022/10/17 00:03:46;;;;;;;0.93;0.93;;;;;;;9.72;88.79;100847.06;5030728;28;20205;-69
2022/10/17 00:06:15;;;;;;;0.50;0.50;;;;;;;9.75;88.91;100844.47;5029068;28;20226;-69
2022/10/17 00:08:43;;;;;;;0.80;0.80;;;;;;;9.63;88.44;100842.78;5030530;28;20198;-69
2022/10/17 00:11:15;;;;;;;0.90;0.90;;;;;;;9.72;88.48;100849.63;5030720;28;20209;-70
2022/10/17 00:13:43;;;;;;;0.87;0.87;;;;;;;9.71;88.67;100853.03;5030499;28;20590;-69
2022/10/17 00:16:11;;;;;;;0.57;0.57;;;;;;;9.60;87.33;100853.03;5022500;28;20685;-70
2022/10/17 00:18:37;;;;;;;0.90;0.90;;;;;;;9.56;87.06;100860.75;5030459;28;20202;-69
2022/10/17 00:21:05;;;;;;;1.27;1.27;;;;;;;9.53;87.62;100855.66;5030359;28;20209;-69
2022/10/17 00:23:31;;;;;;;0.77;0.77;;;;;;;9.54;87.65;100852.22;5030619;28;20631;-69
2022/10/17 00:25:59;;;;;;;1.33;1.23;;;;;;;9.52;87.58;100849.66;5032106;28;20293;-69
2022/10/17 00:28:26;;;;;;;0.50;0.50;;;;;;;9.42;87.55;100841.16;5033148;28;20205;-69
2022/10/17 00:30:58;;;;;;;0.40;0.40;;;;;;;9.52;88.02;100856.50;5032343;28;20201;-69
2022/10/17 00:33:25;;;;;;;0.60;0.60;;;;;;;9.53;87.79;100850.53;5033998;28;20201;-69
2022/10/17 00:35:51;;;;;;;0.50;0.50;;;;;;;9.52;87.38;100857.34;5033873;28;20213;-69
2022/10/17 00:38:18;;;;;;;1.13;1.13;;;;;;;9.50;87.70;100852.22;5033969;28;20205;-69
2022/10/17 00:40:45;;;;;;;0.57;0.57;;;;;;;9.41;87.88;100842.00;5033775;28;20197;-69
2022/10/17 00:43:17;;;;;;;0.70;0.70;;;;;;;9.36;87.90;100842.88;5033916;28;20193;-69
2022/10/17 00:45:44;;;;;;;0.53;0.53;;;;;;;9.43;88.37;100860.75;5031072;28;20194;-69
2022/10/17 00:48:13;;;;;;;0.60;0.60;;;;;;;9.40;87.90;100854.84;5032821;28;20197;-69
2022/10/17 00:50:42;;;;;;;0.70;0.70;;;;;;;9.34;87.91;100853.13;5032904;28;20202;-69
2022/10/17 00:53:10;;;;;;;0.60;0.60;;;;;;;9.35;88.51;100852.28;5033605;28;20665;-69
2022/10/17 00:55:42;;;;;;;0.50;0.50;;;;;;;9.32;88.90;100852.28;5033656;28;20257;-69
2022/10/17 00:58:09;;;;;;;0.67;0.67;;;;;;;9.32;88.93;100852.28;5033381;28;20207;-69
2022/10/17 01:00:36;;;;;;;0.60;0.60;;;;;;;9.27;88.44;100848.03;5033430;28;20197;-69
2022/10/17 01:03:04;;;;;;;0.90;0.90;;;;;;;9.24;88.68;100848.03;5033354;28;20208;-69
2022/10/17 01:05:32;;;;;;;0.60;0.60;;;;;;;9.24;88.83;100851.41;5033317;28;20697;-69
2022/10/17 01:07:59;;;;;;;1.07;1.07;;;;;;;9.22;88.98;100854.84;5033372;28;20605;-69
2022/10/17 01:10:33;;;;;;;0.70;0.70;;;;;;;9.15;89.76;100853.13;5033278;28;20203;-69
2022/10/17 01:13:09;;;;;;;0.67;0.67;;;;;;;9.13;89.64;100853.16;5032699;28;20922;-68
2022/10/17 01:15:49;;;;;;;0.50;0.50;;;;;;;9.02;90.08;100842.06;5031699;28;20224;-69
2022/10/17 01:18:24;;;;;;;0.60;0.60;;;;;;;9.04;89.64;100852.31;5033453;28;20201;-69
2022/10/17 01:21:27;;;;;;;0.50;0.50;;;;;;;9.03;89.71;100851.47;5032782;28;20197;-69
2022/10/17 01:24:27;;;;;;;0.60;0.60;;;;;;;9.01;89.81;100858.28;5032428;28;20201;-68
2022/10/17 01:27:25;;;;;;;0.50;0.50;;;;;;;8.99;89.54;100859.97;5032923;28;20201;-70
2022/10/17 01:30:23;;;;;;;0.50;0.50;;;;;;;8.91;88.85;100864.25;4998207;28;20636;-69
2022/10/17 01:32:57;;;;;;;0.63;0.63;;;;;;;8.85;89.27;100852.31;5032022;28;20638;-69
2022/10/17 01:35:30;;;;;;;0.80;0.80;;;;;;;8.77;89.20;100856.59;5032639;28;20224;-69
2022/10/17 01:38:05;;;;;;;0.60;0.60;;;;;;;8.80;89.36;100858.28;5031116;28;20597;-69
2022/10/17 01:40:37;;;;;;;0.80;0.80;;;;;;;8.70;89.11;100859.13;5032187;28;20201;-69
2022/10/17 01:43:08;;;;;;;0.70;0.70;;;;;;;8.52;89.67;100829.31;5031700;28;20267;-69
2022/10/17 01:45:44;;;;;;;1.20;1.20;;;;;;;8.72;89.73;100857.44;5028818;28;20201;-69
2022/10/17 01:48:17;;;;;;;0.60;0.60;;;;;;;8.73;90.16;100859.13;5031593;28;20201;-69
2022/10/17 01:50:49;;;;;;;0.90;0.90;;;;;;;8.69;89.90;100852.31;5032622;28;20201;-69
2022/10/17 01:53:20;;;;;;;0.50;0.50;;;;;;;8.66;90.09;100852.31;5032467;28;20204;-69
2022/10/17 01:55:50;;;;;;;0.70;0.70;;;;;;;8.63;90.14;100862.53;5032332;28;20217;-69
2022/10/17 01:58:22;;;;;;;0.60;0.60;;;;;;;8.44;90.52;100846.31;5032168;28;20677;-68
2022/10/17 02:00:50;;;;;;;1.00;1.00;;;;;;;8.38;91.44;100854.84;5032187;28;20197;-69
2022/10/17 02:03:21;;;;;;;0.93;0.93;;;;;;;8.33;91.24;100851.44;5032295;28;20224;-68
2022/10/17 02:05:48;;;;;;;0.60;0.60;;;;;;;8.37;91.39;100868.44;5032149;28;20213;-69
2022/10/17 02:08:25;;;;;;;0.77;0.77;;;;;;;8.38;91.68;100870.16;5032307;28;20197;-69
2022/10/17 02:10:57;;;;;;;0.80;0.80;;;;;;;8.41;92.00;100880.38;5032202;28;20212;-69
2022/10/17 02:13:34;;;;;;;1.20;1.20;;;;;;;8.42;91.41;100874.44;5031726;28;20220;-68
2022/10/17 02:16:13;;;;;;;1.20;1.20;;;;;;;8.37;91.79;100876.13;5030148;28;20267;-69
2022/10/17 02:18:52;;;;;;;0.80;0.80;;;;;;;8.30;91.97;100869.28;5032245;28;20204;-68
2022/10/17 02:21:28;;;;;;;0.80;0.80;;;;;;;8.37;91.46;100885.47;5031939;28;20197;-69
2022/10/17 02:24:01;;;;;;;0.70;0.70;;;;;;;8.30;91.50;100884.59;5031917;28;20279;-69
2022/10/17 02:26:32;;;;;;;0.70;0.70;;;;;;;8.22;91.66;100888.81;5031606;28;20193;-68
2022/10/17 02:29:06;;;;;;;1.00;1.00;;;;;;;8.27;91.26;100894.78;5031920;28;20194;-68
2022/10/17 02:31:39;;;;;;;0.80;0.80;;;;;;;8.23;91.47;100892.25;5032356;28;20851;-69
2022/10/17 02:34:13;;;;;;;0.83;0.83;;;;;;;8.23;91.42;100892.25;5022965;28;20205;-69
2022/10/17 02:36:45;;;;;;;0.50;0.50;;;;;;;8.24;91.61;100889.69;5031582;28;20241;-68
2022/10/17 02:39:13;;;;;;;0.63;0.63;;;;;;;8.24;92.25;100894.78;5030067;28;20581;-69
2022/10/17 02:41:41;;;;;;;0.80;0.80;;;;;;;8.18;91.97;100899.00;5030247;28;20204;-69
2022/10/17 02:44:09;;;;;;;0.60;0.60;;;;;;;8.12;92.22;100894.75;5027216;28;20270;-69
2022/10/17 02:46:38;;;;;;;0.77;0.77;;;;;;;8.10;91.72;100901.56;5029720;28;20201;-69
2022/10/17 02:49:14;;;;;;;0.73;0.73;;;;;;;8.10;91.89;100904.13;5030981;28;20209;-69
2022/10/17 02:51:45;;;;;;;0.60;0.60;;;;;;;8.09;91.04;100915.19;5031513;28;20204;-68
2022/10/17 02:54:19;;;;;;;0.60;0.60;;;;;;;8.03;90.95;100910.03;5031621;28;20197;-69
2022/10/17 02:56:51;;;;;;;0.53;0.53;;;;;;;8.06;91.18;100920.28;5031068;28;20327;-68
2022/10/17 02:59:22;;;;;;;0.60;0.60;;;;;;;8.07;91.16;100922.00;5031261;28;20209;-69
2022/10/17 03:01:51;;;;;;;0.60;0.60;;;;;;;8.07;91.21;100921.13;5031440;28;20193;-69
2022/10/17 03:04:19;;;;;;;0.60;0.60;;;;;;;8.03;91.25;100930.47;5031391;28;20209;-69
2022/10/17 03:06:47;;;;;;;0.50;0.50;;;;;;;7.93;91.31;100914.25;5029893;28;20244;-68
2022/10/17 03:09:14;;;;;;;0.80;0.80;;;;;;;8.01;91.39;100927.06;5031510;28;20574;-69
2022/10/17 03:11:41;;;;;;;0.60;0.60;;;;;;;7.88;91.10;100920.19;5029263;28;20675;-69
2022/10/17 03:14:09;;;;;;;0.50;0.50;;;;;;;7.77;92.15;100921.81;5031177;28;20193;-69
2022/10/17 03:16:35;;;;;;;0.80;0.80;;;;;;;7.83;92.13;100919.31;5031032;28;20224;-69
2022/10/17 03:19:02;;;;;;;0.50;0.50;;;;;;;7.88;92.00;100921.03;5030760;28;20204;-69
2022/10/17 03:21:30;;;;;;;0.73;0.73;;;;;;;7.89;91.75;100919.34;5031064;28;20208;-68
2022/10/17 03:23:57;;;;;;;0.70;0.70;;;;;;;7.83;91.68;100922.72;5030746;28;20204;-69
2022/10/17 03:26:24;;;;;;;0.70;0.70;;;;;;;7.70;92.12;100902.22;5031204;28;20593;-70
2022/10/17 03:28:51;;;;;;;0.80;0.80;;;;;;;7.81;92.12;100921.00;5030867;28;20220;-68
2022/10/17 03:31:18;;;;;;;0.60;0.60;;;;;;;7.84;92.25;100923.56;5031238;28;20198;-68
2022/10/17 03:33:45;;;;;;;0.67;0.67;;;;;;;7.81;92.43;100926.13;5030856;28;20193;-70
2022/10/17 03:36:14;;;;;;;0.80;0.80;;;;;;;7.84;92.96;100934.66;5028904;28;20601;-68
2022/10/17 03:38:43;;;;;;;0.60;0.60;;;;;;;7.86;92.54;100937.19;5026865;28;20216;-69
2022/10/17 03:41:10;;;;;;;2.20;1.60;;;;;;;7.82;92.48;100931.22;5029959;28;20280;-69
2022/10/17 03:43:37;;;;;;;0.77;0.77;;;;;;;7.88;92.13;100938.06;5027939;28;20284;-68
2022/10/17 03:46:04;;;;;;;0.90;0.90;;;;;;;7.86;92.07;100935.50;5030298;28;20647;-68
2022/10/17 03:48:32;;;;;;;0.70;0.70;;;;;;;7.81;92.37;100926.97;5030970;28;20208;-69
2022/10/17 03:51:00;;;;;;;0.70;0.70;;;;;;;7.72;92.69;100923.53;5030484;28;20198;-68
2022/10/17 03:53:27;;;;;;;0.50;0.50;;;;;;;7.76;92.84;100927.78;5030736;28;20198;-69
2022/10/17 03:55:56;;;;;;;0.50;0.50;;;;;;;7.77;92.88;100932.03;5030812;28;20205;-69
2022/10/17 03:58:23;;;;;;;0.70;0.70;;;;;;;7.78;92.66;100936.31;5030831;28;20563;-68
2022/10/17 04:00:50;;;;;;;0.53;0.53;;;;;;;7.68;93.12;100937.09;5034094;28;20200;-69
2022/10/17 04:03:16;;;;;;;0.50;0.50;;;;;;;7.57;93.53;100929.38;5032552;28;20198;-68
2022/10/17 04:05:43;;;;;;;0.70;0.70;;;;;;;7.59;93.55;100934.50;5034204;28;20232;-68
2022/10/17 04:08:10;;;;;;;0.50;0.50;;;;;;;7.58;93.65;100930.22;5034387;28;20411;-68
2022/10/17 04:10:37;;;;;;;0.50;0.50;;;;;;;7.58;94.10;100922.56;5034508;28;20193;-68
2022/10/17 04:13:05;;;;;;;0.80;0.80;;;;;;;7.59;93.96;100926.84;5034218;28;20693;-68
2022/10/17 04:15:32;;;;;;;0.67;0.67;;;;;;;7.59;93.98;100931.94;5034483;28;20558;-68
2022/10/17 04:17:59;;;;;;;0.50;0.50;;;;;;;7.56;94.18;100932.75;5034194;28;20224;-69
2022/10/17 04:20:26;;;;;;;0.73;0.73;;;;;;;7.49;93.96;100930.16;5034283;28;20198;-68
2022/10/17 04:22:53;;;;;;;0.67;0.67;;;;;;;7.44;93.81;100942.03;5034300;28;20197;-69
2022/10/17 04:25:19;;;;;;;0.60;0.60;;;;;;;7.46;93.53;100946.31;5033765;28;20201;-68
2022/10/17 04:27:47;;;;;;;0.70;0.70;;;;;;;7.46;94.02;100948.88;5034351;28;20224;-69
2022/10/17 04:30:16;;;;;;;0.63;0.63;;;;;;;7.45;94.10;100948.84;5034181;28;20288;-68
2022/10/17 04:32:43;;;;;;;0.70;0.70;;;;;;;7.44;94.02;100953.09;5034377;28;20674;-69
2022/10/17 04:35:10;;;;;;;0.60;0.60;;;;;;;7.45;94.13;100956.50;5030090;28;20205;-68
2022/10/17 04:37:37;;;;;;;0.70;0.70;;;;;;;7.46;94.25;100955.66;5032966;28;20217;-68
2022/10/17 04:40:04;;;;;;;0.70;0.70;;;;;;;7.46;94.41;100956.53;5023016;28;20210;-69
2022/10/17 04:42:31;;;;;;;0.50;0.50;;;;;;;7.49;94.56;100950.59;5033659;28;20205;-69
2022/10/17 04:44:58;;;;;;;0.60;0.60;;;;;;;7.46;94.51;100953.13;5033813;28;20208;-69
2022/10/17 04:47:26;;;;;;;0.80;0.80;;;;;;;7.46;94.93;100955.66;5033577;28;20674;-68
2022/10/17 04:49:53;;;;;;;0.80;0.80;;;;;;;7.44;95.37;100958.19;5033861;28;20205;-69
2022/10/17 04:52:19;;;;;;;0.50;0.50;;;;;;;7.47;95.69;100962.47;5033335;28;20573;-68
2022/10/17 04:54:46;;;;;;;0.70;0.70;;;;;;;7.39;95.45;100955.63;5033849;28;20204;-70
2022/10/17 04:57:13;;;;;;;0.60;0.60;;;;;;;7.49;95.43;100971.84;5033466;28;20233;-69
2022/10/17 04:59:40;;;;;;;0.80;0.80;;;;;;;7.44;95.13;100977.75;5033408;28;20205;-69
2022/10/17 05:02:07;;;;;;;0.70;0.70;;;;;;;7.39;95.44;100976.03;5033423;28;20205;-69
2022/10/17 05:04:35;;;;;;;1.27;1.27;;;;;;;7.40;95.62;100982.81;5031334;28;20276;-69
2022/10/17 05:07:02;;;;;;;0.70;0.70;;;;;;;7.44;95.00;100993.91;5033243;28;20600;-69
2022/10/17 05:09:29;;;;;;;1.07;1.07;;;;;;;7.41;95.92;100999.00;5032047;28;20204;-68
2022/10/17 05:11:56;;;;;;;0.70;0.70;;;;;;;7.43;96.07;100996.47;5030189;28;20208;-69
2022/10/17 05:14:22;;;;;;;0.70;0.70;;;;;;;7.45;96.02;101010.94;5033272;28;20213;-69
2022/10/17 05:16:49;;;;;;;0.50;0.50;;;;;;;7.49;95.54;101017.78;5027776;28;20236;-69
2022/10/17 05:19:17;;;;;;;0.60;0.60;;;;;;;7.30;96.03;100981.03;5033411;28;20555;-69
2022/10/17 05:21:45;;;;;;;0.50;0.50;;;;;;;7.45;96.63;101002.44;5032901;28;20244;-69
2022/10/17 05:24:14;;;;;;;0.70;0.70;;;;;;;7.44;96.99;101011.78;5025336;28;20216;-69
2022/10/17 05:26:41;;;;;;;0.70;0.70;;;;;;;7.38;97.86;101010.03;5031339;28;20194;-68
2022/10/17 05:29:07;;;;;;;0.60;0.60;;;;;;;7.39;97.78;101016.84;5032918;28;20201;-69
2022/10/17 05:31:34;;;;;;;0.70;0.70;;;;;;;7.44;97.82;101016.03;5033113;28;20578;-68
2022/10/17 05:34:01;;;;;;;0.50;0.50;;;;;;;7.46;97.77;101034.78;5032178;28;20201;-69
2022/10/17 05:36:28;;;;;;;0.70;0.70;;;;;;;7.39;98.83;101039.81;5028718;28;20240;-69
2022/10/17 05:38:56;;;;;;;0.70;0.70;;;;;;;7.40;99.19;101044.06;5030364;28;20205;-69
2022/10/17 05:41:23;;;;;;;0.63;0.63;;;;;;;7.42;99.02;101038.13;5032721;28;20205;-69
2022/10/17 05:43:50;;;;;;;0.60;0.60;;;;;;;7.51;99.56;101045.84;5032029;28;20197;-69
2022/10/17 05:46:17;;;;;;;0.60;0.60;;;;;;;7.52;100.00;101048.44;5032819;28;20677;-69
2022/10/17 05:48:44;;;;;;;0.70;0.70;;;;;;;7.57;100.00;101051.00;5032575;28;20209;-68
2022/10/17 05:51:11;;;;;;;0.50;0.50;;;;;;;7.64;100.00;101050.22;5024611;28;20193;-69
2022/10/17 05:53:40;;;;;;;0.60;0.60;;;;;;;7.74;100.00;101054.56;5032525;28;20205;-68
2022/10/17 05:56:10;;;;;;;0.93;0.93;;;;;;;7.84;100.00;101061.44;5032657;28;20209;-69
2022/10/17 05:58:39;;;;;;;0.60;0.60;;;;;;;7.93;100.00;101066.63;5032612;28;20217;-69
2022/10/17 06:01:07;;;;;;;0.50;0.50;;;;;;;7.98;100.00;101049.59;5032325;28;20209;-69
2022/10/17 06:03:34;;;;;;;0.50;0.50;;;;;;;8.08;100.00;101053.09;5030893;28;20204;-69
2022/10/17 06:06:04;;;;;;;0.50;0.50;;;;;;;8.16;100.00;101059.97;5031755;28;20217;-69
2022/10/17 06:08:31;;;;;;;0.73;0.73;;;;;;;8.23;100.00;101056.59;5031978;28;20582;-69
2022/10/17 06:10:58;;;;;;;0.70;0.70;;;;;;;8.29;100.00;101060.91;5031327;28;20632;-69
2022/10/17 06:13:27;;;;;;;0.93;0.93;;;;;;;8.40;100.00;101067.78;5031967;28;20193;-70
2022/10/17 06:15:53;;;;;;;0.60;0.60;;;;;;;8.50;100.00;101075.53;5014970;28;20190;-69
2022/10/17 06:18:20;;;;;;;0.60;0.60;;;;;;;8.56;100.00;101070.44;5012301;28;20686;-69
2022/10/17 06:20:48;;;;;;;0.60;0.60;;;;;;;8.63;100.00;101079.81;5025944;28;20292;-68
2022/10/17 06:23:14;;;;;;;0.50;0.50;;;;;;;8.75;100.00;101082.44;5012372;28;20205;-69
2022/10/17 06:25:41;;;;;;;0.53;0.53;;;;;;;8.77;100.00;101078.19;5012113;28;20578;-69
2022/10/17 06:28:09;;;;;;;0.83;0.83;;;;;;;8.81;100.00;101074.78;5012193;28;20729;-69
2022/10/17 06:30:39;;;;;;;0.60;0.60;;;;;;;8.89;100.00;101075.66;5011387;28;20256;-69
2022/10/17 06:33:06;;;;;;;1.00;1.00;;;;;;;8.95;100.00;101079.09;5016754;28;20252;-69
2022/10/17 06:35:33;;;;;;;1.10;1.00;;;;;;;9.03;100.00;101084.25;5012808;28;20205;-70
2022/10/17 06:38:00;;;;;;;0.60;0.60;;;;;;;9.14;100.00;101079.16;5014373;28;20724;-69
2022/10/17 06:40:27;;;;;;;0.80;0.80;;;;;;;9.14;100.00;101074.91;5012158;28;20693;-69
2022/10/17 06:42:53;;;;;;;1.03;1.03;;;;;;;9.32;100.00;101092.00;5031205;28;20201;-69
2022/10/17 06:45:20;;;;;;;2.20;2.20;;;;;;;9.39;100.00;101092.00;5021329;28;20690;-69
2022/10/17 06:47:49;;;;;;;0.67;0.67;;;;;;;9.41;100.00;101097.97;5031680;28;20569;-69
2022/10/17 06:50:16;;;;;;;0.50;0.50;;;;;;;9.50;99.37;101103.09;5031072;28;20720;-69
2022/10/17 06:52:43;;;;;;;0.50;0.50;;;;;;;9.59;99.02;101101.44;5021987;28;20689;-69
2022/10/17 06:55:10;;;;;;;0.50;0.50;;;;;;;9.71;99.67;101103.97;5011416;28;20194;-69
2022/10/17 06:57:36;;;;;;;0.70;0.70;;;;;;;9.78;98.34;101106.56;5011917;28;20716;-69
2022/10/17 07:00:05;;;;;;;0.80;0.80;;;;;;;9.94;98.51;101099.72;5011469;28;20594;-69
2022/10/17 07:02:32;;;;;;;0.97;0.97;;;;;;;9.95;97.27;101093.75;5011728;28;20206;-69
2022/10/17 07:05:00;;;;;;;0.80;0.80;;;;;;;10.21;96.74;101104.84;5011366;28;20202;-69
2022/10/17 07:07:30;;;;;;;0.60;0.60;;;;;;;10.43;96.30;101100.53;5011740;28;20270;-69
2022/10/17 07:09:56;;;;;;;1.03;1.03;;;;;;;10.63;95.97;101103.06;5011339;28;20228;-70
2022/10/17 07:12:24;;;;;;;0.50;0.50;;;;;;;10.79;94.27;101084.19;5011236;28;20198;-69
2022/10/17 07:14:50;;;;;;;0.50;0.50;;;;;;;11.02;93.15;101072.94;5011381;28;20201;-69
2022/10/17 07:17:17;;;;;;;0.50;0.50;;;;;;;11.41;90.91;101105.22;5009965;28;20218;-69
2022/10/17 07:19:44;;;;;;;0.60;0.60;;;;;;;11.59;91.18;101102.53;5011282;28;20708;-69
2022/10/17 07:22:12;;;;;;;0.90;0.90;;;;;;;11.82;89.13;101111.81;5011121;28;20218;-69
2022/10/17 07:24:39;;;;;;;0.40;0.40;;;;;;;12.04;87.46;101115.91;5008802;28;20586;-70
2022/10/17 07:27:06;;;;;;;0.50;0.50;;;;;;;12.21;85.39;101114.06;5010514;28;20206;-70
2022/10/17 07:29:33;;;;;;;0.63;0.63;;;;;;;12.36;85.00;101098.47;5010937;28;20202;-70
2022/10/17 07:32:02;;;;;;;0.50;0.50;;;;;;;12.67;83.15;101113.53;5009969;28;20214;-70
2022/10/17 07:34:30;;;;;;;0.43;0.43;;;;;;;12.84;81.87;101127.94;5013228;28;20205;-70
2022/10/17 07:36:57;;;;;;;0.43;0.43;;;;;;;13.00;81.40;101110.56;5017677;28;20198;-70
2022/10/17 07:39:25;;;;;;;0.50;0.50;;;;;;;13.34;80.01;101124.75;5017787;28;20555;-70
2022/10/17 07:41:52;;;;;;;0.80;0.80;;;;;;;13.53;77.37;101115.88;5017921;28;20193;-70
2022/10/17 07:44:19;;;;;;;0.67;0.67;;;;;;;13.84;77.29;101136.88;5017950;28;20192;-69
2022/10/17 07:46:46;;;;;;;0.53;0.53;;;;;;;14.02;75.37;101130.56;5017393;28;20210;-69
2022/10/17 07:49:13;;;;;;;0.40;0.40;;;;;;;14.17;75.08;101126.00;5017496;28;20206;-70
2022/10/17 07:51:40;;;;;;;0.50;0.50;;;;;;;14.29;74.38;101130.09;5017227;28;20203;-70
2022/10/17 07:54:07;;;;;;;0.93;0.93;;;;;;;14.31;74.41;101128.34;5017516;28;20693;-70
2022/10/17 07:56:36;;;;;;;0.50;0.50;;;;;;;14.51;74.30;101120.25;5017529;28;20221;-70
2022/10/17 07:59:02;;;;;;;0.70;0.70;;;;;;;14.78;73.76;101124.03;5017179;28;20219;-70
2022/10/17 08:01:29;;;;;;;0.50;0.50;;;;;;;14.99;73.36;101115.88;5017164;28;20199;-70
2022/10/17 08:03:56;;;;;;;0.57;0.57;;;;;;;15.17;72.74;101112.88;5017669;28;20194;-70
2022/10/17 08:06:23;;;;;;;0.40;0.40;;;;;;;15.42;71.35;101111.44;5029072;28;20963;-70
2022/10/17 08:08:50;;;;;;;0.60;0.60;;;;;;;15.55;70.61;101114.63;5037268;28;20220;-70
2022/10/17 08:11:16;;;;;;;0.40;0.40;;;;;;;15.80;68.36;101110.56;5034649;28;20197;-70
2022/10/17 08:13:44;;;;;;;0.50;0.50;;;;;;;15.97;69.96;101107.56;5017161;28;20205;-70
2022/10/17 08:16:13;;;;;;;0.50;0.50;;;;;;;16.09;67.57;101107.28;5019842;28;20535;-70
2022/10/17 08:18:41;;;;;;;0.60;0.60;;;;;;;16.14;64.28;101110.59;5036921;28;20352;-70
2022/10/17 08:21:08;;;;;;;0.60;0.60;;;;;;;16.28;64.17;101113.69;5035509;28;20202;-70
2022/10/17 08:23:36;;;;;;;0.50;0.50;;;;;;;16.34;65.69;101107.47;5015664;28;20199;-70
2022/10/17 08:26:04;;;;;;;0.50;0.50;;;;;;;16.47;64.63;101109.72;5016961;28;20205;-70
2022/10/17 08:28:31;;;;;;;0.40;0.40;;;;;;;16.65;65.22;101104.03;5020614;28;20206;-70
2022/10/17 08:31:04;;;;;;;0.50;0.50;;;;;;;16.71;64.17;101098.69;5018969;28;20637;-70
2022/10/17 08:33:32;;;;;;;0.40;0.40;;;;;;;16.92;64.17;101106.75;5034109;28;20208;-71
2022/10/17 08:35:59;;;;;;;0.57;0.57;;;;;;;17.08;63.43;101113.19;5020301;28;20666;-71
2022/10/17 08:38:26;;;;;;;0.40;0.40;;;;;;;17.19;63.61;101117.13;5017188;28;20209;-71
2022/10/17 08:40:55;;;;;;;0.50;0.50;;;;;;;17.27;62.04;101109.13;5017146;28;20736;-71
2022/10/17 08:43:32;;;;;;;0.60;0.60;;;;;;;17.45;61.07;101105.97;5020776;28;20197;-71
2022/10/17 08:46:01;;;;;;;0.60;0.60;;;;;;;17.66;60.81;101107.94;5024403;28;20233;-71
2022/10/17 08:48:34;;;;;;;0.40;0.40;;;;;;;17.80;62.52;101103.13;5012884;28;20641;-72
2022/10/17 08:51:05;;;;;;;0.63;0.63;;;;;;;17.89;58.96;101111.53;5013676;28;20194;-71
2022/10/17 08:53:36;;;;;;;0.57;0.57;;;;;;;17.98;57.97;101119.00;5013994;28;20253;-71
2022/10/17 08:56:13;;;;;;;0.43;0.43;;;;;;;18.06;58.28;101106.63;5013662;28;20202;-71
2022/10/17 08:58:40;;;;;;;0.50;0.50;;;;;;;18.21;58.17;101106.09;5013942;28;20214;-71
2022/10/17 09:01:21;;;;;;;0.40;0.40;;;;;;;18.26;59.82;101104.19;5017335;28;20209;-71
2022/10/17 09:03:59;;;;;;;0.50;0.50;;;;;;;18.15;58.62;101103.72;5033358;28;20200;-71
2022/10/17 09:06:29;;;;;;;0.50;0.50;;;;;;;18.05;57.45;101107.53;5027575;28;20274;-71
2022/10/17 09:09:18;;;;;;;0.50;0.50;;;;;;;18.11;57.80;101097.78;5031818;28;20735;-71
2022/10/17 09:12:01;;;;;;;0.50;0.50;;;;;;;18.25;59.50;101097.31;5012994;28;20202;-71
2022/10/17 09:14:43;;;;;;;0.40;0.40;;;;;;;18.28;58.15;101102.41;5018516;28;20198;-72
2022/10/17 09:17:19;;;;;;;0.40;0.40;;;;;;;18.37;58.84;101096.88;5033248;28;20193;-71
2022/10/17 09:20:01;;;;;;;0.40;0.40;;;;;;;18.53;56.11;101092.88;5033506;28;20200;-71
2022/10/17 09:22:33;;;;;;;0.30;0.30;;;;;;;18.40;55.73;101090.72;5025458;28;20210;-71
2022/10/17 09:25:05;;;;;;;0.50;0.50;;;;;;;18.50;55.90;101085.19;5013190;28;20693;-71
2022/10/17 09:27:36;;;;;;;0.70;0.70;;;;;;;18.49;56.95;101086.03;5012336;28;20237;-71
2022/10/17 09:30:23;;;;;;;0.70;0.70;;;;;;;18.58;55.90;101080.53;5014179;28;20213;-71
2022/10/17 09:32:50;;;;;;;0.60;0.60;;;;;;;18.67;57.11;101082.84;5013328;28;20201;-72
2022/10/17 09:35:20;;;;;;;0.40;0.40;;;;;;;18.61;54.59;101084.81;5032363;28;20205;-71
2022/10/17 09:37:49;;;;;;;0.40;0.40;;;;;;;18.58;55.49;101074.53;5032758;28;20569;-70
2022/10/17 09:40:21;;;;;;;0.40;0.40;;;;;;;18.76;55.23;101079.88;5015679;28;20660;-71
2022/10/17 09:42:50;;;;;;;0.60;0.60;;;;;;;18.90;55.87;101081.13;5013077;28;20581;-71
2022/10/17 09:45:23;;;;;;;0.50;0.50;;;;;;;18.92;54.10;101085.34;5015532;28;20241;-72
2022/10/17 09:47:57;;;;;;;0.97;0.97;;;;;;;19.00;53.60;101083.28;5032569;28;20204;-71
2022/10/17 09:50:29;;;;;;;0.60;0.60;;;;;;;19.18;53.73;101081.75;5032939;28;20685;-71
2022/10/17 09:53:00;;;;;;;0.60;0.60;;;;;;;18.98;53.12;101053.06;5032579;28;20264;-72
2022/10/17 09:55:33;;;;;;;0.40;0.40;;;;;;;19.02;52.96;101073.72;5032433;28;20185;-71
2022/10/17 09:58:02;;;;;;;0.60;0.60;;;;;;;19.02;53.26;101075.44;5031830;28;20221;-71
2022/10/17 10:00:31;;;;;;;0.50;0.50;;;;;;;19.12;52.48;101074.19;5032341;28;20581;-71
2022/10/17 10:03:19;;;;;;;0.40;0.40;;;;;;;19.11;51.36;101072.50;5032769;28;20686;-71
2022/10/17 10:06:02;;;;;;;0.50;0.50;;;;;;;19.19;51.67;101068.69;5021695;28;20235;-71
2022/10/17 10:08:31;;;;;;;0.50;0.50;;;;;;;19.28;50.70;101068.34;5032088;28;20201;-71
2022/10/17 10:11:02;;;;;;;0.40;0.40;;;;;;;19.38;51.22;101058.44;5032237;28;20205;-72
2022/10/17 10:13:29;;;;;;;1.13;0.70;;;;;;;19.44;48.81;101058.22;5032262;28;20194;-71
2022/10/17 10:16:14;;;;;;;0.40;0.40;;;;;;;19.46;49.89;101056.38;5032354;28;20202;-72
2022/10/17 10:18:41;;;;;;;0.33;0.33;;;;;;;19.49;49.36;101040.66;5033986;28;20224;-71
2022/10/17 10:21:12;;;;;;;0.50;0.50;;;;;;;19.62;47.88;101052.25;5031904;28;20204;-71
2022/10/17 10:23:40;;;;;;;0.40;0.40;;;;;;;19.53;44.63;101026.59;5029093;28;20199;-71
2022/10/17 10:26:22;;;;;;;0.40;0.40;;;;;;;19.78;45.66;101034.22;5030990;28;20691;-71
2022/10/17 10:28:55;;;;;;;0.40;0.40;;;;;;;19.89;46.85;101035.50;5031547;28;20201;-72
2022/10/17 10:31:37;;;;;;;0.30;0.30;;;;;;;19.91;44.59;101038.88;5031612;28;20209;-72
2022/10/17 10:34:16;;;;;;;0.40;0.40;;;;;;;19.84;44.80;101029.63;5031464;28;20290;-71
2022/10/17 10:36:48;;;;;;;0.43;0.43;;;;;;;19.86;43.56;101025.22;5031682;28;20198;-73
2022/10/17 10:39:42;;;;;;;0.50;0.50;;;;;;;19.81;45.62;101029.75;5031628;28;20222;-73
2022/10/17 10:42:19;;;;;;;0.40;0.40;;;;;;;19.96;42.26;101030.03;5009498;28;20203;-71
2022/10/17 10:44:47;;;;;;;0.40;0.40;;;;;;;20.10;42.32;101033.72;5031511;28;20197;-72
2022/10/17 10:47:20;;;;;;;0.40;0.40;;;;;;;20.09;41.91;101026.81;5031719;28;20208;-72
2022/10/17 10:49:47;;;;;;;0.40;0.40;;;;;;;20.03;41.02;101026.25;5029442;28;20202;-72
2022/10/17 10:52:25;;;;;;;0.50;0.50;;;;;;;19.93;40.52;101018.00;5031234;28;20214;-72
2022/10/17 10:54:59;;;;;;;0.40;0.40;;;;;;;19.84;40.90;101020.94;5031609;28;20202;-72
2022/10/17 10:57:29;;;;;;;0.50;0.50;;;;;;;19.88;41.79;101015.56;5030933;28;20194;-72
2022/10/17 11:00:00;;;;;;;0.60;0.60;;;;;;;20.03;40.75;101008.88;5030876;28;20214;-72
2022/10/17 11:02:35;;;;;;;0.50;0.50;;;;;;;20.00;41.69;101005.56;5031146;28;20205;-72
2022/10/17 11:05:06;;;;;;;0.50;0.50;;;;;;;20.07;41.75;101005.19;5031371;28;20655;-71
2022/10/17 11:07:39;;;;;;;0.43;0.43;;;;;;;20.00;40.04;101015.97;5031360;28;20221;-70
2022/10/17 11:10:14;;;;;;;0.40;0.40;;;;;;;20.09;39.59;101007.75;5030841;28;20197;-72
2022/10/17 11:12:47;;;;;;;0.60;0.60;;;;;;;20.23;39.85;101002.75;5031137;28;20221;-71
2022/10/17 11:15:21;;;;;;;0.30;0.30;;;;;;;20.32;39.66;101005.00;5031292;28;20195;-71
2022/10/17 11:17:57;;;;;;;0.60;0.60;;;;;;;20.39;40.03;100998.59;5029529;28;20297;-71
2022/10/17 11:20:32;;;;;;;0.60;0.60;;;;;;;20.48;40.69;101000.81;5030826;28;20218;-71
2022/10/17 11:23:19;;;;;;;0.40;0.40;;;;;;;20.47;39.31;100998.25;5029526;28;20232;-71
2022/10/17 11:25:48;;;;;;;0.40;0.40;;;;;;;20.41;40.00;100991.56;5030866;28;20204;-72
2022/10/17 11:28:17;;;;;;;0.40;0.40;;;;;;;20.26;39.90;100998.28;5031146;28;20246;-72
2022/10/17 11:30:52;;;;;;;0.40;0.40;;;;;;;20.09;40.61;100984.31;5030731;28;20581;-71
2022/10/17 11:33:28;;;;;;;0.50;0.50;;;;;;;20.12;39.78;100984.19;5030908;28;20261;-72
2022/10/17 11:36:01;;;;;;;0.40;0.40;;;;;;;19.98;39.43;100973.50;5027528;28;20573;-71
2022/10/17 11:38:40;;;;;;;0.40;0.40;;;;;;;20.00;40.13;100979.53;5030651;28;20220;-72
2022/10/17 11:41:12;;;;;;;0.40;0.40;;;;;;;19.89;40.39;100960.00;5031034;28;20669;-71
2022/10/17 11:43:45;;;;;;;0.50;0.50;;;;;;;20.10;41.18;100970.34;5030588;28;20201;-71